Time;durP1;ratioP1;P1;durP2;ratioP2;P2;SDS_P1;SDS_P2;PMS_P1;PMS_P2;Temp;Humidity;BMP_temperature;BMP_pressure;BME280_temperature;BME280_humidity;BME280_pressure;Samples;Min_cycle;Max_cycle;Signal;HPM_P1;HPM_P2
2022/11/26 00:00:24;;;;;;;11.23;5.30;;;5.30;99.90;;;;;;5104622;28;20051;-67
2022/11/26 00:02:50;;;;;;;10.90;5.05;;;5.20;99.90;;;;;;5106459;28;20402;-66
2022/11/26 00:05:16;;;;;;;9.20;5.22;;;5.20;99.90;;;;;;5108166;28;20054;-67
2022/11/26 00:07:46;;;;;;;15.25;5.85;;;5.20;99.90;;;;;;5107578;28;20088;-67
2022/11/26 00:10:23;;;;;;;14.65;5.80;;;5.20;99.90;;;;;;5108887;28;20067;-67
2022/11/26 00:12:49;;;;;;;19.48;6.60;;;5.20;99.90;;;;;;5097104;28;20440;-66
2022/11/26 00:15:20;;;;;;;15.30;5.68;;;5.20;99.90;;;;;;5101602;28;20063;-67
2022/11/26 00:17:47;;;;;;;12.63;5.18;;;5.20;99.90;;;;;;5101171;28;20040;-68
2022/11/26 00:20:13;;;;;;;12.98;5.10;;;5.20;99.90;;;;;;5100447;28;20066;-67
2022/11/26 00:22:43;;;;;;;12.57;5.25;;;5.20;99.90;;;;;;5098790;28;20044;-67
2022/11/26 00:25:21;;;;;;;13.93;5.30;;;5.20;99.90;;;;;;5103273;28;20054;-67
2022/11/26 00:27:48;;;;;;;13.75;4.97;;;5.20;99.90;;;;;;5107685;28;20398;-67
2022/11/26 00:30:17;;;;;;;12.57;5.28;;;5.20;99.90;;;;;;5100782;28;20032;-67
2022/11/26 00:32:43;;;;;;;12.95;5.78;;;5.10;99.90;;;;;;5101698;28;20031;-67
2022/11/26 00:35:08;;;;;;;10.60;5.88;;;5.10;99.90;;;;;;5098790;28;20543;-66
2022/11/26 00:37:47;;;;;;;25.38;6.32;;;5.10;99.90;;;;;;5120217;27;20046;-67
2022/11/26 00:40:24;;;;;;;13.68;5.97;;;5.10;99.90;;;;;;5109390;28;20036;-67
2022/11/26 00:42:51;;;;;;;11.18;5.90;;;5.10;99.90;;;;;;5085151;28;20425;-67
2022/11/26 00:45:21;;;;;;;10.57;4.90;;;5.10;99.90;;;;;;5100398;28;21726;-67
2022/11/26 00:47:46;;;;;;;11.48;5.13;;;5.10;99.90;;;;;;5117551;27;20043;-67
2022/11/26 00:50:21;;;;;;;11.32;5.60;;;5.10;99.90;;;;;;5099641;28;20044;-68
2022/11/26 00:52:50;;;;;;;13.32;5.75;;;5.00;99.90;;;;;;5105430;28;20393;-67
2022/11/26 00:55:27;;;;;;;14.00;5.78;;;5.00;99.90;;;;;;5101601;28;20050;-67
2022/11/26 00:57:54;;;;;;;11.50;4.78;;;5.00;99.90;;;;;;5104039;28;20088;-67
2022/11/26 01:00:23;;;;;;;11.38;4.90;;;5.00;99.90;;;;;;5110680;28;20489;-67
2022/11/26 01:02:49;;;;;;;11.88;5.10;;;4.90;99.90;;;;;;5107926;28;20130;-67
2022/11/26 01:05:16;;;;;;;13.70;5.45;;;4.90;99.90;;;;;;5110335;28;20134;-67
2022/11/26 01:07:43;;;;;;;10.52;5.75;;;4.90;99.90;;;;;;5110263;28;20048;-67
2022/11/26 01:10:20;;;;;;;11.45;5.47;;;4.90;99.90;;;;;;5087667;28;20095;-67
2022/11/26 01:12:47;;;;;;;10.27;5.13;;;4.90;99.90;;;;;;5120098;27;20063;-67
2022/11/26 01:15:14;;;;;;;6.95;4.55;;;4.90;99.90;;;;;;5101312;28;20082;-67
2022/11/26 01:17:40;;;;;;;7.55;4.63;;;4.90;99.90;;;;;;5098457;28;20047;-67
2022/11/26 01:20:23;;;;;;;8.43;4.35;;;4.90;99.90;;;;;;5089718;28;20092;-67
2022/11/26 01:22:50;;;;;;;9.75;4.47;;;4.90;99.90;;;;;;5102962;28;20040;-67
2022/11/26 01:25:16;;;;;;;10.90;4.90;;;4.80;99.90;;;;;;5104643;28;20126;-66
2022/11/26 01:27:42;;;;;;;11.60;5.13;;;4.80;99.90;;;;;;5086883;28;20035;-67
2022/11/26 01:30:26;;;;;;;17.58;5.47;;;4.80;99.90;;;;;;5106780;28;20097;-67
2022/11/26 01:32:52;;;;;;;11.07;5.35;;;4.80;99.90;;;;;;5107346;28;20042;-67
2022/11/26 01:35:19;;;;;;;12.40;4.90;;;4.80;99.90;;;;;;5106262;28;20039;-67
2022/11/26 01:37:46;;;;;;;12.52;5.07;;;4.80;99.90;;;;;;5102520;28;20048;-67
2022/11/26 01:40:26;;;;;;;11.10;4.93;;;4.80;99.90;;;;;;5104912;28;20039;-67
2022/11/26 01:42:57;;;;;;;10.05;4.32;;;4.70;99.90;;;;;;5108039;28;20085;-67
2022/11/26 01:45:23;;;;;;;9.45;4.35;;;4.70;99.90;;;;;;5108053;28;20106;-67
2022/11/26 01:47:49;;;;;;;14.30;5.10;;;4.70;99.90;;;;;;5104711;27;20032;-67
2022/11/26 01:50:30;;;;;;;9.02;4.13;;;4.70;99.90;;;;;;5119216;27;20039;-67
2022/11/26 01:53:01;;;;;;;10.98;4.53;;;4.60;99.90;;;;;;5099585;27;20090;-67
2022/11/26 01:55:37;;;;;;;7.30;4.45;;;4.60;99.90;;;;;;5099158;28;20036;-67
2022/11/26 01:58:06;;;;;;;12.57;5.38;;;4.60;99.90;;;;;;5099884;28;21042;-67
2022/11/26 02:00:32;;;;;;;10.32;4.68;;;4.60;99.90;;;;;;5085579;28;20115;-67
2022/11/26 02:02:59;;;;;;;12.75;4.45;;;4.60;99.90;;;;;;5102636;28;20050;-67
2022/11/26 02:05:30;;;;;;;12.68;4.70;;;4.60;99.90;;;;;;5107471;28;20410;-68
2022/11/26 02:07:56;;;;;;;11.65;4.97;;;4.60;99.90;;;;;;5099281;27;20109;-68
2022/11/26 02:10:23;;;;;;;10.32;4.60;;;4.60;99.90;;;;;;5105634;28;20046;-67
2022/11/26 02:12:49;;;;;;;9.25;4.10;;;4.60;99.90;;;;;;5103769;28;20572;-68
2022/11/26 02:15:15;;;;;;;13.10;4.22;;;4.60;99.90;;;;;;5106376;28;20043;-67
2022/11/26 02:17:49;;;;;;;10.43;4.65;;;4.60;99.90;;;;;;5108958;28;20050;-67
2022/11/26 02:21:00;;;;;;;14.93;5.40;;;4.60;99.90;;;;;;5103204;28;20040;-67
2022/11/26 02:23:41;;;;;;;14.63;6.63;;;4.60;99.90;;;;;;5096224;28;20487;-67
2022/11/26 02:26:24;;;;;;;20.98;6.10;;;4.50;99.90;;;;;;5106363;28;20042;-67
2022/11/26 02:29:13;;;;;;;10.73;4.78;;;4.60;99.90;;;;;;5104194;28;20036;-67
2022/11/26 02:32:14;;;;;;;10.50;4.60;;;4.50;99.90;;;;;;5098024;28;20127;-66
2022/11/26 02:35:05;;;;;;;15.60;4.63;;;4.50;99.90;;;;;;5023145;28;20100;-67
2022/11/26 02:37:37;;;;;;;8.90;4.72;;;4.50;99.90;;;;;;5010690;28;20471;-67
2022/11/26 02:40:06;;;;;;;13.77;4.53;;;4.50;99.90;;;;;;5010074;28;20073;-67
2022/11/26 02:42:34;;;;;;;12.20;4.38;;;4.50;99.90;;;;;;5023798;28;20076;-67
2022/11/26 02:45:11;;;;;;;10.73;4.32;;;4.50;99.90;;;;;;5008004;28;20140;-67
2022/11/26 02:47:40;;;;;;;21.65;5.90;;;4.40;99.90;;;;;;5013040;28;20053;-67
2022/11/26 02:50:10;;;;;;;10.60;4.25;;;4.40;99.90;;;;;;5008784;28;21424;-67
2022/11/26 02:52:40;;;;;;;12.07;4.63;;;4.40;99.90;;;;;;5009841;28;20054;-66
2022/11/26 02:55:07;;;;;;;10.15;4.13;;;4.40;99.90;;;;;;5026281;28;20049;-67
2022/11/26 02:57:41;;;;;;;10.13;4.82;;;4.40;99.90;;;;;;4992986;28;20121;-67
2022/11/26 03:00:07;;;;;;;11.52;5.75;;;4.30;99.90;;;;;;5009047;28;20052;-67
2022/11/26 03:02:39;;;;;;;11.48;4.57;;;4.40;99.90;;;;;;5028252;28;20049;-67
2022/11/26 03:05:06;;;;;;;14.07;5.40;;;4.30;99.90;;;;;;5008493;28;20193;-66
2022/11/26 03:07:34;;;;;;;14.20;5.32;;;4.30;99.90;;;;;;5028190;28;20045;-67
2022/11/26 03:10:01;;;;;;;12.93;4.32;;;4.30;99.90;;;;;;5006072;28;20061;-67
2022/11/26 03:12:27;;;;;;;14.45;5.10;;;4.30;99.90;;;;;;5109452;28;20039;-67
2022/11/26 03:14:53;;;;;;;8.15;3.95;;;4.30;99.90;;;;;;5105907;28;20372;-67
2022/11/26 03:17:19;;;;;;;7.65;3.90;;;4.40;99.90;;;;;;5109202;28;20042;-67
2022/11/26 03:19:45;;;;;;;10.40;4.07;;;4.30;99.90;;;;;;5111289;28;20050;-67
2022/11/26 03:22:12;;;;;;;12.65;4.13;;;4.40;99.90;;;;;;5108351;28;20411;-67
2022/11/26 03:24:37;;;;;;;9.25;3.85;;;4.40;99.90;;;;;;5112047;28;20043;-67
2022/11/26 03:27:03;;;;;;;10.68;4.80;;;4.40;99.90;;;;;;5108826;28;20100;-67
2022/11/26 03:29:29;;;;;;;11.98;4.40;;;4.40;99.90;;;;;;5110244;28;20679;-67
2022/11/26 03:31:55;;;;;;;13.30;5.05;;;4.30;99.90;;;;;;5101674;28;20063;-67
2022/11/26 03:34:20;;;;;;;9.40;4.88;;;4.40;99.90;;;;;;5109831;28;20469;-67
2022/11/26 03:36:46;;;;;;;8.52;4.85;;;4.40;99.90;;;;;;5092043;28;20470;-67
2022/11/26 03:39:12;;;;;;;11.30;4.65;;;4.40;99.90;;;;;;5100644;28;20551;-67
2022/11/26 03:41:37;;;;;;;13.00;4.55;;;4.40;99.90;;;;;;5100432;28;20062;-67
2022/11/26 03:44:03;;;;;;;10.40;4.30;;;4.40;99.90;;;;;;5103394;28;20137;-66
2022/11/26 03:46:29;;;;;;;13.35;4.15;;;4.40;99.90;;;;;;5110394;28;20035;-66
2022/11/26 03:48:55;;;;;;;11.10;3.88;;;4.40;99.90;;;;;;5100972;28;20044;-67
2022/11/26 03:51:20;;;;;;;7.57;4.05;;;4.40;99.90;;;;;;5097702;28;20132;-67
2022/11/26 03:53:46;;;;;;;14.88;4.97;;;4.40;99.90;;;;;;5110715;28;20044;-67
2022/11/26 03:56:12;;;;;;;15.65;5.13;;;4.40;99.90;;;;;;5104218;28;20054;-67
2022/11/26 03:58:37;;;;;;;10.82;4.32;;;4.30;99.90;;;;;;5102779;28;20079;-67
2022/11/26 04:01:08;;;;;;;11.30;4.70;;;4.30;99.90;;;;;;5081954;28;20048;-67
2022/11/26 04:03:34;;;;;;;12.57;4.80;;;4.30;99.90;;;;;;5106044;28;20512;-67
2022/11/26 04:05:59;;;;;;;12.93;4.75;;;4.30;99.90;;;;;;5103926;28;20040;-67
2022/11/26 04:08:25;;;;;;;11.50;5.60;;;4.30;99.90;;;;;;5110105;28;20440;-67
2022/11/26 04:10:50;;;;;;;9.25;4.72;;;4.30;99.90;;;;;;5085381;28;20470;-67
2022/11/26 04:13:16;;;;;;;11.02;4.70;;;4.30;99.90;;;;;;5101244;28;20050;-68
2022/11/26 04:15:42;;;;;;;10.00;4.63;;;4.30;99.90;;;;;;5106781;28;20056;-67
2022/11/26 04:18:07;;;;;;;9.63;4.43;;;4.30;99.90;;;;;;5107643;28;20448;-67
2022/11/26 04:20:33;;;;;;;12.77;4.35;;;4.20;99.90;;;;;;5107856;28;20102;-66
2022/11/26 04:22:58;;;;;;;12.38;4.82;;;4.20;99.90;;;;;;5100529;28;20050;-67
2022/11/26 04:25:25;;;;;;;10.88;4.65;;;4.20;99.90;;;;;;5103268;28;20039;-67
2022/11/26 04:27:50;;;;;;;8.80;4.53;;;4.20;99.90;;;;;;5106681;28;20520;-66
2022/11/26 04:30:16;;;;;;;12.38;4.65;;;4.20;99.90;;;;;;5104096;28;20036;-67
2022/11/26 04:32:42;;;;;;;11.65;4.63;;;4.10;99.90;;;;;;5109712;28;20051;-68
2022/11/26 04:35:08;;;;;;;9.95;4.50;;;4.10;99.90;;;;;;5103924;28;20088;-67
2022/11/26 04:37:34;;;;;;;11.65;5.00;;;4.10;99.90;;;;;;5103273;28;20168;-67
2022/11/26 04:40:00;;;;;;;9.93;4.57;;;4.10;99.90;;;;;;5109368;28;20073;-67
2022/11/26 04:42:26;;;;;;;10.77;4.95;;;4.10;99.90;;;;;;5101348;28;20067;-66
2022/11/26 04:44:52;;;;;;;11.43;5.22;;;4.10;99.90;;;;;;5099748;28;20043;-67
2022/11/26 04:47:17;;;;;;;11.27;4.53;;;4.10;99.90;;;;;;5106245;28;20042;-66
2022/11/26 04:49:43;;;;;;;13.43;4.75;;;4.10;99.90;;;;;;5115363;27;20036;-67
2022/11/26 04:52:09;;;;;;;9.70;4.22;;;4.10;99.90;;;;;;5109018;28;20040;-68
2022/11/26 04:54:35;;;;;;;11.57;4.55;;;4.10;99.90;;;;;;5101960;28;20063;-68
2022/11/26 04:57:00;;;;;;;15.77;6.15;;;4.10;99.90;;;;;;5080634;28;20140;-67
2022/11/26 04:59:26;;;;;;;8.30;4.45;;;4.10;99.90;;;;;;5106078;28;20043;-66
2022/11/26 05:01:51;;;;;;;11.50;4.88;;;4.20;99.90;;;;;;5109062;28;20393;-67
2022/11/26 05:04:17;;;;;;;8.65;4.70;;;4.10;99.90;;;;;;5086888;28;20062;-67
2022/11/26 05:06:43;;;;;;;10.93;4.70;;;4.20;99.90;;;;;;5089766;28;20058;-67
2022/11/26 05:09:08;;;;;;;12.73;5.57;;;4.10;99.90;;;;;;5098105;28;20502;-67
2022/11/26 05:11:34;;;;;;;12.10;4.50;;;4.10;99.90;;;;;;5097330;28;20770;-67
2022/11/26 05:14:00;;;;;;;9.15;4.30;;;4.10;99.90;;;;;;5101434;28;20086;-67
2022/11/26 05:16:25;;;;;;;10.48;5.30;;;4.10;99.90;;;;;;5089195;28;20127;-68
2022/11/26 05:18:51;;;;;;;10.73;4.90;;;4.10;99.90;;;;;;5097104;28;20383;-67
2022/11/26 05:21:16;;;;;;;8.43;4.35;;;4.10;99.90;;;;;;5095999;28;20048;-67
2022/11/26 05:23:42;;;;;;;11.32;4.70;;;4.10;99.90;;;;;;5084755;28;20051;-67
2022/11/26 05:26:08;;;;;;;15.57;5.55;;;4.10;99.90;;;;;;5107047;28;20062;-68
2022/11/26 05:28:33;;;;;;;15.23;4.85;;;4.00;99.90;;;;;;5109103;28;20039;-67
2022/11/26 05:31:01;;;;;;;10.85;4.88;;;4.00;99.90;;;;;;5081668;28;20039;-67
2022/11/26 05:33:27;;;;;;;11.90;4.82;;;4.00;99.90;;;;;;5106189;28;20053;-67
2022/11/26 05:35:53;;;;;;;11.40;5.70;;;4.00;99.90;;;;;;5102059;28;20056;-67
2022/11/26 05:38:18;;;;;;;14.73;5.15;;;4.00;99.90;;;;;;5107198;28;21000;-67
2022/11/26 05:40:44;;;;;;;10.70;5.93;;;4.00;99.90;;;;;;5094876;28;20027;-67
2022/11/26 05:43:09;;;;;;;10.63;5.50;;;4.00;99.90;;;;;;5101443;28;20497;-67
2022/11/26 05:45:35;;;;;;;9.55;5.43;;;4.00;99.90;;;;;;5105889;28;20044;-67
2022/11/26 05:48:01;;;;;;;8.48;5.25;;;4.00;99.90;;;;;;5093658;28;20052;-67
2022/11/26 05:50:26;;;;;;;13.18;5.55;;;3.90;99.90;;;;;;5093283;28;20084;-68
2022/11/26 05:52:52;;;;;;;9.23;5.20;;;3.90;99.90;;;;;;5097491;28;20044;-67
2022/11/26 05:55:18;;;;;;;7.80;4.82;;;3.90;99.90;;;;;;5099065;28;20051;-67
2022/11/26 05:57:44;;;;;;;10.88;4.57;;;3.90;99.90;;;;;;5098992;28;20055;-67
2022/11/26 06:00:10;;;;;;;8.25;4.57;;;3.90;99.90;;;;;;5104819;28;20046;-67
2022/11/26 06:02:36;;;;;;;7.43;5.05;;;3.90;99.90;;;;;;5099551;28;20054;-67
2022/11/26 06:05:03;;;;;;;13.40;6.00;;;3.90;99.90;;;;;;5097020;28;20056;-67
2022/11/26 06:07:28;;;;;;;13.07;6.10;;;3.90;99.90;;;;;;5109331;28;20113;-67
2022/11/26 06:09:54;;;;;;;9.55;5.15;;;4.00;99.90;;;;;;5090227;28;20066;-67
2022/11/26 06:12:20;;;;;;;10.48;5.65;;;4.00;99.90;;;;;;5105061;28;20067;-67
2022/11/26 06:14:45;;;;;;;12.57;5.50;;;4.00;99.90;;;;;;5100368;28;20036;-67
2022/11/26 06:17:11;;;;;;;9.18;5.07;;;4.00;99.90;;;;;;5100791;28;20043;-67
2022/11/26 06:19:37;;;;;;;11.85;5.63;;;4.00;99.90;;;;;;5096593;28;20096;-67
2022/11/26 06:22:03;;;;;;;9.60;5.53;;;4.00;99.90;;;;;;5100506;28;20044;-67
2022/11/26 06:24:28;;;;;;;7.72;5.10;;;4.00;99.90;;;;;;5101524;28;20047;-68
2022/11/26 06:26:54;;;;;;;10.60;5.22;;;4.00;99.90;;;;;;5102806;28;20027;-69
2022/11/26 06:29:20;;;;;;;10.38;5.32;;;4.00;99.90;;;;;;5097890;28;20040;-67
2022/11/26 06:31:46;;;;;;;12.80;5.85;;;4.00;99.90;;;;;;5108938;28;20084;-67
2022/11/26 06:34:13;;;;;;;10.43;5.47;;;4.00;99.90;;;;;;5099603;28;20067;-67
2022/11/26 06:36:38;;;;;;;14.75;6.85;;;3.90;99.90;;;;;;5084563;28;20058;-67
2022/11/26 06:39:04;;;;;;;14.77;6.40;;;3.90;99.90;;;;;;5088164;28;20397;-67
2022/11/26 06:41:30;;;;;;;11.20;5.53;;;4.00;99.90;;;;;;5082459;28;20062;-67
2022/11/26 06:43:57;;;;;;;11.60;6.45;;;4.00;99.90;;;;;;5092155;28;20044;-67
2022/11/26 06:46:23;;;;;;;9.90;5.50;;;4.00;99.90;;;;;;5103474;28;20112;-66
2022/11/26 06:48:48;;;;;;;12.65;6.57;;;4.00;99.90;;;;;;5098777;28;20040;-67
2022/11/26 06:51:15;;;;;;;12.63;6.25;;;4.00;99.90;;;;;;5101938;28;20060;-67
2022/11/26 06:53:41;;;;;;;11.43;5.82;;;4.00;99.90;;;;;;5082929;28;20043;-67
2022/11/26 06:56:11;;;;;;;15.32;6.43;;;4.00;99.90;;;;;;5103372;28;20024;-68
2022/11/26 06:58:37;;;;;;;11.77;6.63;;;4.00;99.90;;;;;;5084745;28;20131;-67
2022/11/26 07:01:11;;;;;;;12.98;6.35;;;4.10;99.90;;;;;;5113023;28;20131;-68
2022/11/26 07:03:37;;;;;;;15.43;6.78;;;4.10;99.90;;;;;;5110778;28;20044;-67
2022/11/26 07:06:03;;;;;;;11.57;6.40;;;4.10;99.90;;;;;;5094868;28;20051;-67
2022/11/26 07:08:29;;;;;;;15.07;7.30;;;4.10;99.90;;;;;;5111884;28;20126;-66
2022/11/26 07:10:54;;;;;;;13.73;7.43;;;4.20;99.90;;;;;;5111476;27;20048;-67
2022/11/26 07:13:20;;;;;;;18.08;6.60;;;4.20;99.90;;;;;;5109518;27;20039;-68
2022/11/26 07:15:46;;;;;;;14.38;7.55;;;4.10;99.90;;;;;;5112638;28;20039;-67
2022/11/26 07:18:11;;;;;;;17.00;7.20;;;4.20;99.90;;;;;;5112572;28;20042;-67
2022/11/26 07:20:37;;;;;;;18.45;8.25;;;4.20;99.90;;;;;;5095144;28;20587;-67
2022/11/26 07:23:03;;;;;;;16.60;7.97;;;4.30;99.90;;;;;;5112278;27;20093;-67
2022/11/26 07:25:29;;;;;;;15.05;8.50;;;4.30;99.90;;;;;;5109640;28;20039;-66
2022/11/26 07:27:55;;;;;;;17.65;7.93;;;4.30;99.90;;;;;;5112472;28;20474;-67
2022/11/26 07:30:21;;;;;;;22.30;7.63;;;4.30;99.90;;;;;;5109370;27;20048;-66
2022/11/26 07:32:47;;;;;;;15.68;7.70;;;4.30;99.90;;;;;;5114117;27;20035;-68
2022/11/26 07:35:12;;;;;;;19.58;7.50;;;4.30;99.90;;;;;;5112141;28;20478;-66
2022/11/26 07:37:38;;;;;;;19.15;7.85;;;4.30;99.90;;;;;;5106772;27;20096;-67
2022/11/26 07:40:05;;;;;;;18.05;7.15;;;4.40;99.90;;;;;;5111542;28;20070;-65
2022/11/26 07:42:32;;;;;;;18.17;7.18;;;4.40;99.90;;;;;;5111574;28;20039;-67
2022/11/26 07:44:58;;;;;;;19.98;7.93;;;4.50;99.90;;;;;;5111541;28;20092;-67
2022/11/26 07:47:24;;;;;;;21.48;7.28;;;4.50;99.90;;;;;;5109891;27;20048;-66
2022/11/26 07:49:50;;;;;;;17.40;7.90;;;4.50;99.90;;;;;;5093507;28;20035;-66
2022/11/26 07:52:15;;;;;;;16.65;7.43;;;4.60;99.90;;;;;;5110627;28;20059;-66
2022/11/26 07:54:41;;;;;;;16.80;7.53;;;4.60;99.90;;;;;;5110397;27;20044;-67
2022/11/26 07:57:06;;;;;;;20.33;8.52;;;4.60;99.90;;;;;;5111397;28;20046;-67
2022/11/26 07:59:32;;;;;;;18.50;7.90;;;4.70;99.90;;;;;;5111730;27;20079;-67
2022/11/26 08:01:58;;;;;;;16.08;7.45;;;4.70;99.90;;;;;;5111153;28;20414;-65
2022/11/26 08:04:23;;;;;;;21.10;8.15;;;4.80;99.90;;;;;;5108482;27;20067;-67
2022/11/26 08:06:49;;;;;;;17.30;8.10;;;4.80;99.90;;;;;;5094145;28;20075;-65
2022/11/26 08:09:15;;;;;;;15.30;8.55;;;4.90;99.90;;;;;;5111284;28;20051;-67
2022/11/26 08:11:40;;;;;;;17.40;7.72;;;4.90;99.90;;;;;;5107933;27;20551;-68
2022/11/26 08:14:10;;;;;;;18.50;7.57;;;5.00;99.90;;;;;;5110212;27;20048;-66
2022/11/26 08:16:36;;;;;;;17.83;8.23;;;5.00;99.90;;;;;;5109568;28;20442;-68
2022/11/26 08:19:05;;;;;;;21.63;8.15;;;5.00;99.90;;;;;;5109522;27;20047;-67
2022/11/26 08:21:31;;;;;;;16.98;7.72;;;5.00;99.90;;;;;;5108686;27;20092;-68
2022/11/26 08:23:56;;;;;;;17.85;7.47;;;5.10;99.90;;;;;;5093745;28;20039;-65
2022/11/26 08:26:24;;;;;;;20.50;7.40;;;5.10;99.90;;;;;;5104666;27;20116;-66
2022/11/26 08:28:50;;;;;;;20.48;7.97;;;5.10;99.90;;;;;;5106684;28;20398;-66
2022/11/26 08:31:16;;;;;;;15.27;7.55;;;5.20;99.90;;;;;;5092568;28;20061;-67
2022/11/26 08:33:43;;;;;;;18.63;7.95;;;5.20;99.90;;;;;;5110093;28;20110;-67
2022/11/26 08:36:10;;;;;;;18.00;7.68;;;5.20;99.90;;;;;;5110843;28;20482;-66
2022/11/26 08:38:36;;;;;;;21.10;8.18;;;5.30;99.90;;;;;;5110339;28;20036;-66
2022/11/26 08:41:08;;;;;;;16.20;7.35;;;5.30;99.90;;;;;;5111082;28;20493;-66
2022/11/26 08:43:35;;;;;;;21.42;8.00;;;5.30;99.90;;;;;;5110433;28;20402;-67
2022/11/26 08:46:01;;;;;;;17.98;8.27;;;5.30;99.90;;;;;;5110765;28;20061;-66
2022/11/26 08:48:28;;;;;;;23.20;7.97;;;5.40;99.90;;;;;;5111009;28;20128;-65
2022/11/26 08:51:03;;;;;;;16.52;8.30;;;5.40;99.90;;;;;;5110833;28;20042;-68
2022/11/26 08:53:30;;;;;;;20.20;7.93;;;5.40;99.90;;;;;;5110821;28;20128;-67
2022/11/26 08:56:11;;;;;;;20.77;8.80;;;5.40;99.90;;;;;;5093879;28;20040;-67
2022/11/26 08:58:38;;;;;;;18.65;8.80;;;5.50;99.90;;;;;;5110241;28;20050;-68
2022/11/26 09:01:15;;;;;;;20.50;7.78;;;5.50;99.90;;;;;;5110926;28;20047;-67
2022/11/26 09:03:41;;;;;;;18.42;9.02;;;5.60;99.90;;;;;;5110200;28;20041;-67
2022/11/26 09:06:07;;;;;;;20.17;8.73;;;5.70;99.90;;;;;;5110016;28;20055;-68
2022/11/26 09:11:22;;;;;;;21.52;9.30;;;5.80;99.90;;;;;;5110761;28;20123;-67
2022/11/26 09:13:48;;;;;;;18.45;8.82;;;5.80;99.90;;;;;;5110636;28;20114;-67
2022/11/26 09:16:13;;;;;;;20.60;8.68;;;5.90;99.90;;;;;;5110726;28;20546;-66
2022/11/26 09:18:39;;;;;;;18.50;9.15;;;6.00;99.90;;;;;;5110338;28;20042;-67
2022/11/26 09:21:04;;;;;;;23.40;8.35;;;6.10;99.90;;;;;;5093017;28;20046;-67
2022/11/26 09:23:30;;;;;;;21.67;8.68;;;6.10;99.90;;;;;;5111765;28;20073;-68
2022/11/26 09:25:56;;;;;;;23.02;9.35;;;6.20;99.90;;;;;;5110028;28;20059;-67
2022/11/26 09:28:21;;;;;;;21.98;10.13;;;6.30;99.90;;;;;;5110681;28;20497;-66
2022/11/26 09:30:48;;;;;;;18.15;9.32;;;6.40;99.90;;;;;;5110477;28;20043;-67
2022/11/26 09:33:13;;;;;;;18.77;8.65;;;6.60;99.90;;;;;;5110252;28;20050;-67
2022/11/26 09:35:39;;;;;;;21.77;9.60;;;6.70;99.90;;;;;;5111598;28;20040;-68
2022/11/26 09:38:05;;;;;;;22.05;9.85;;;6.80;99.90;;;;;;5111436;28;20027;-67
2022/11/26 09:40:44;;;;;;;22.17;9.82;;;7.00;99.90;;;;;;5110077;28;20504;-66
2022/11/26 09:43:28;;;;;;;19.33;9.43;;;7.10;99.90;;;;;;5110386;28;20535;-67
2022/11/26 09:45:57;;;;;;;17.88;8.43;;;7.30;99.90;;;;;;5110084;28;20039;-67
2022/11/26 09:48:25;;;;;;;18.60;8.27;;;7.50;99.90;;;;;;5093211;28;20124;-68
2022/11/26 09:51:01;;;;;;;20.98;8.93;;;7.60;99.90;;;;;;5110033;28;20523;-68
2022/11/26 09:53:35;;;;;;;23.75;9.32;;;7.70;99.90;;;;;;5093172;28;20530;-67
2022/11/26 09:56:01;;;;;;;19.73;10.60;;;7.70;99.90;;;;;;5109997;28;20044;-67
2022/11/26 09:59:02;;;;;;;20.83;10.25;;;7.70;99.90;;;;;;5092478;28;20123;-66
2022/11/26 10:01:31;;;;;;;17.17;9.20;;;7.60;99.90;;;;;;5105860;28;20046;-68
2022/11/26 10:03:57;;;;;;;20.55;9.48;;;7.60;99.90;;;;;;5109650;28;20156;-68
2022/11/26 10:06:39;;;;;;;23.38;9.13;;;7.60;99.90;;;;;;5092698;28;20047;-67
2022/11/26 10:09:31;;;;;;;17.13;9.38;;;7.60;99.90;;;;;;5109669;28;20044;-66
2022/11/26 10:12:22;;;;;;;23.45;10.80;;;7.60;99.90;;;;;;5109626;28;20059;-66
2022/11/26 10:15:15;;;;;;;20.27;8.93;;;7.60;99.90;;;;;;5109601;28;20043;-65
2022/11/26 10:17:49;;;;;;;;;;;7.60;99.90;;;;;;5106866;28;20134;-69
2022/11/26 10:20:42;;;;;;;20.17;9.80;;;7.60;99.90;;;;;;5110430;28;19925;-67
2022/11/26 10:23:11;;;;;;;19.63;9.60;;;7.70;99.90;;;;;;5109107;28;20038;-67
2022/11/26 10:25:50;;;;;;;23.98;10.40;;;7.70;99.90;;;;;;5109141;28;20127;-67
2022/11/26 10:28:37;;;;;;;26.67;10.30;;;7.70;99.90;;;;;;5109366;28;20035;-67
2022/11/26 10:31:12;;;;;;;23.17;10.88;;;7.70;99.90;;;;;;5109089;28;20032;-66
2022/11/26 10:33:47;;;;;;;23.25;10.23;;;7.60;99.90;;;;;;5091739;28;20185;-68
2022/11/26 10:36:21;;;;;;;21.95;10.90;;;7.60;99.90;;;;;;5108941;28;20086;-69
2022/11/26 10:38:47;;;;;;;23.83;11.23;;;7.60;99.90;;;;;;5109205;28;20493;-67
2022/11/26 10:41:14;;;;;;;26.45;10.90;;;7.60;99.90;;;;;;5109414;28;20044;-67
2022/11/26 10:43:39;;;;;;;23.13;10.98;;;7.70;99.90;;;;;;5109051;28;20458;-68
2022/11/26 10:46:05;;;;;;;22.25;10.98;;;7.70;99.90;;;;;;5108979;28;20116;-68
2022/11/26 10:48:34;;;;;;;25.40;13.45;;;7.70;99.90;;;;;;5107460;28;20118;-68
2022/11/26 10:51:18;;;;;;;22.00;11.27;;;7.70;99.90;;;;;;5110334;28;20104;-65
2022/11/26 10:54:00;;;;;;;25.52;12.55;;;7.70;99.90;;;;;;5109401;28;20078;-68
2022/11/26 10:56:39;;;;;;;23.35;11.45;;;7.70;99.90;;;;;;5109579;28;20489;-67
2022/11/26 10:59:21;;;;;;;25.80;11.95;;;7.70;99.90;;;;;;5109188;28;20058;-66
2022/11/26 11:01:47;;;;;;;25.63;11.50;;;7.70;99.90;;;;;;5109244;28;20059;-67
2022/11/26 11:04:26;;;;;;;32.38;13.38;;;7.70;99.90;;;;;;5109223;28;20566;-68
2022/11/26 11:06:52;;;;;;;31.67;12.60;;;7.80;99.90;;;;;;5109011;28;20503;-68
2022/11/26 11:09:36;;;;;;;21.55;12.25;;;7.80;99.90;;;;;;5109205;28;20040;-67
2022/11/26 11:12:14;;;;;;;28.20;13.18;;;7.80;99.90;;;;;;5109171;28;20031;-68
2022/11/26 11:14:41;;;;;;;28.15;13.15;;;7.80;99.90;;;;;;5109145;28;20414;-68
2022/11/26 11:17:18;;;;;;;29.13;13.68;;;7.90;99.90;;;;;;5109013;28;20031;-68
2022/11/26 11:19:44;;;;;;;26.40;12.85;;;7.80;99.90;;;;;;5109087;28;20126;-67
2022/11/26 11:22:19;;;;;;;27.10;13.25;;;7.90;99.90;;;;;;5109179;28;20131;-67
2022/11/26 11:24:46;;;;;;;28.77;13.38;;;7.90;99.90;;;;;;5109371;28;20046;-66
2022/11/26 11:27:29;;;;;;;34.35;14.45;;;7.90;99.90;;;;;;5108813;28;20096;-67
2022/11/26 11:30:00;;;;;;;29.98;12.80;;;7.90;99.90;;;;;;5112826;28;21579;-68
2022/11/26 11:32:39;;;;;;;29.83;14.10;;;7.90;99.90;;;;;;5112747;28;20051;-67
2022/11/26 11:35:18;;;;;;;29.80;14.27;;;8.00;99.90;;;;;;5112540;28;20035;-69
2022/11/26 11:37:52;;;;;;;25.83;13.13;;;8.10;99.90;;;;;;5112515;28;20054;-66
2022/11/26 11:40:24;;;;;;;26.90;12.68;;;8.10;99.90;;;;;;5112248;28;20444;-66
2022/11/26 11:42:59;;;;;;;25.33;13.73;;;8.10;99.90;;;;;;5095470;28;20140;-69
2022/11/26 11:45:28;;;;;;;30.75;14.10;;;8.20;99.90;;;;;;5112160;28;20044;-68
2022/11/26 11:48:00;;;;;;;28.08;12.77;;;8.20;99.90;;;;;;5112550;28;20363;-68
2022/11/26 11:50:33;;;;;;;33.60;13.50;;;8.20;99.90;;;;;;5112286;28;20094;-67
2022/11/26 11:53:05;;;;;;;27.88;11.82;;;8.30;99.90;;;;;;5112366;28;20044;-67
2022/11/26 11:55:53;;;;;;;27.73;13.45;;;8.30;99.90;;;;;;5112500;28;20359;-66
2022/11/26 11:58:36;;;;;;;28.77;12.85;;;8.30;99.90;;;;;;5111920;28;20149;-68
2022/11/26 12:01:14;;;;;;;29.90;12.23;;;8.30;99.90;;;;;;5094685;28;20527;-67
2022/11/26 12:03:51;;;;;;;27.23;13.18;;;8.30;99.90;;;;;;5111968;28;20076;-67
2022/11/26 12:06:45;;;;;;;30.52;13.05;;;8.40;99.90;;;;;;5111754;28;20047;-67
2022/11/26 12:09:49;;;;;;;32.78;12.73;;;8.40;99.90;;;;;;5105608;28;20043;-67
2022/11/26 12:12:34;;;;;;;31.13;13.00;;;8.40;99.90;;;;;;5016558;28;20080;-68
2022/11/26 12:15:06;;;;;;;25.10;11.65;;;8.50;99.90;;;;;;5049949;28;20037;-68
2022/11/26 12:18:02;;;;;;;27.50;11.38;;;8.40;99.90;;;;;;5033164;28;20048;-68
2022/11/26 12:20:45;;;;;;;24.75;11.75;;;8.50;99.90;;;;;;4990460;28;20050;-67
2022/11/26 12:23:28;;;;;;;29.40;11.25;;;8.50;99.90;;;;;;4974128;28;20054;-67
2022/11/26 12:26:26;;;;;;;26.73;12.00;;;8.50;99.90;;;;;;4973858;28;20085;-67
2022/11/26 12:29:11;;;;;;;27.65;12.05;;;8.50;99.90;;;;;;4974362;28;20425;-66
2022/11/26 12:31:57;;;;;;;28.48;11.63;;;8.60;99.90;;;;;;4958087;28;20629;-68
2022/11/26 12:34:49;;;;;;;25.75;11.27;;;8.60;99.90;;;;;;4973828;28;20050;-67
2022/11/26 12:37:35;;;;;;;23.80;11.38;;;8.70;99.90;;;;;;4989954;28;20125;-67
2022/11/26 12:40:06;;;;;;;29.00;11.68;;;8.70;99.90;;;;;;4987157;28;20129;-66
2022/11/26 12:42:46;;;;;;;24.83;11.52;;;8.80;99.90;;;;;;4974164;28;20258;-68
2022/11/26 12:45:40;;;;;;;24.02;10.80;;;8.90;99.90;;;;;;4973851;28;20054;-68
2022/11/26 12:48:27;;;;;;;24.35;10.15;;;8.90;99.90;;;;;;4974179;28;20129;-68
2022/11/26 12:51:00;;;;;;;22.95;10.65;;;9.00;99.90;;;;;;5032696;28;20041;-67
2022/11/26 12:53:43;;;;;;;32.15;11.10;;;9.10;99.90;;;;;;5032726;28;20041;-66
2022/11/26 12:56:23;;;;;;;20.63;9.88;;;9.10;99.90;;;;;;5032679;28;20048;-67
2022/11/26 12:58:55;;;;;;;24.88;10.07;;;9.10;99.90;;;;;;5111103;28;20054;-68
2022/11/26 13:01:23;;;;;;;26.23;10.27;;;9.20;99.90;;;;;;5110940;28;20046;-65
2022/11/26 13:03:49;;;;;;;31.65;10.85;;;9.20;99.90;;;;;;5110940;28;20530;-66